Time,TemperatureF,DewpointF,PressureIn,WindDirection,WindDirectionDegrees,WindSpeedMPH,WindSpeedGustMPH,Humidity,HourlyPrecipIn,Conditions,Clouds,dailyrainin,SoftwareType,DateUTC
2013-05-16 00:01:00,56.3,50.9,29.79,West,281,0.0,0.0,82,0.00,,,0.00,Wunderground v.1.15,2013-05-16 04:01:00,
2013-05-16 00:02:00,56.2,50.8,29.79,West,281,0.0,0.0,82,0.00,,,0.00,Wunderground v.1.15,2013-05-16 04:02:00,
2013-05-16 00:04:00,56.1,50.7,29.79,West,281,0.0,0.0,82,0.00,,,0.00,Wunderground v.1.15,2013-05-16 04:04:00,
2013-05-16 00:05:00,56.0,50.3,29.80,West,281,0.0,0.0,81,0.00,,,0.00,Wunderground v.1.15,2013-05-16 04:05:00,
2013-05-16 00:10:00,55.6,50.2,29.80,West,281,0.0,0.0,82,0.00,,,0.00,Wunderground v.1.15,2013-05-16 04:10:00,
2013-05-16 00:15:00,55.4,50.0,29.80,West,281,0.0,0.0,82,0.00,,,0.00,Wunderground v.1.15,2013-05-16 04:15:00,
2013-05-16 00:20:00,55.2,49.8,29.80,West,281,0.0,0.0,82,0.00,,,0.00,Wunderground v.1.15,2013-05-16 04:20:00,
2013-05-16 00:25:00,55.1,50.0,29.80,West,281,0.0,0.0,83,0.00,,,0.00,Wunderground v.1.15,2013-05-16 04:25:00,
2013-05-16 00:30:00,54.8,50.1,29.80,West,281,0.0,0.0,84,0.00,,,0.00,Wunderground v.1.15,2013-05-16 04:30:00,
2013-05-16 00:35:00,54.4,49.7,29.80,West,281,0.0,0.0,84,0.00,,,0.00,Wunderground v.1.15,2013-05-16 04:35:00,
2013-05-16 00:40:00,54.2,49.8,29.80,West,281,0.0,0.0,85,0.00,,,0.00,Wunderground v.1.15,2013-05-16 04:40:00,
2013-05-16 00:45:00,54.1,49.7,29.80,West,281,0.0,0.0,85,0.00,,,0.00,Wunderground v.1.15,2013-05-16 04:45:00,
2013-05-16 00:50:00,54.0,49.6,29.80,West,281,0.0,0.0,85,0.00,,,0.00,Wunderground v.1.15,2013-05-16 04:50:00,
2013-05-16 00:55:00,53.8,49.7,29.80,West,281,0.0,0.0,86,0.00,,,0.00,Wunderground v.1.15,2013-05-16 04:55:00,
2013-05-16 01:00:00,53.7,49.6,29.80,West,281,0.0,0.0,86,0.00,,,0.00,Wunderground v.1.15,2013-05-16 05:00:00,
2013-05-16 01:06:00,53.6,49.8,29.80,West,281,0.0,0.0,87,0.00,,,0.00,Wunderground v.1.15,2013-05-16 05:06:00,
2013-05-16 01:12:00,53.4,49.6,29.80,West,281,0.0,0.0,87,0.00,,,0.00,Wunderground v.1.15,2013-05-16 05:12:00,
2013-05-16 01:17:00,53.3,49.5,29.81,West,281,0.0,0.0,87,0.00,,,0.00,Wunderground v.1.15,2013-05-16 05:17:00,
2013-05-16 01:22:00,53.2,49.4,29.80,West,281,0.0,0.0,87,0.00,,,0.00,Wunderground v.1.15,2013-05-16 05:22:00,
2013-05-16 01:28:00,53.1,49.6,29.81,West,281,0.0,0.0,88,0.00,,,0.00,Wunderground v.1.15,2013-05-16 05:28:00,
2013-05-16 01:33:00,53.0,49.5,29.81,West,281,0.0,0.0,88,0.00,,,0.00,Wunderground v.1.15,2013-05-16 05:33:00,
2013-05-16 01:38:00,52.9,49.4,29.80,West,281,0.0,0.0,88,0.00,,,0.00,Wunderground v.1.15,2013-05-16 05:38:00,
2013-05-16 01:43:00,52.8,49.3,29.81,West,281,0.0,0.0,88,0.00,,,0.00,Wunderground v.1.15,2013-05-16 05:43:00,
2013-05-16 01:48:00,52.6,49.1,29.80,West,281,0.0,0.0,88,0.00,,,0.00,Wunderground v.1.15,2013-05-16 05:48:00,
2013-05-16 01:53:00,52.4,48.9,29.81,West,281,0.0,0.0,88,0.00,,,0.00,Wunderground v.1.15,2013-05-16 05:53:00,
2013-05-16 01:59:00,52.1,48.7,29.81,West,281,0.0,0.0,88,0.00,,,0.00,Wunderground v.1.15,2013-05-16 05:59:00,
2013-05-16 02:04:00,51.9,48.8,29.81,West,281,0.0,0.0,89,0.00,,,0.00,Wunderground v.1.15,2013-05-16 06:04:00,
2013-05-16 02:09:00,51.8,48.7,29.81,West,281,0.0,0.0,89,0.00,,,0.00,Wunderground v.1.15,2013-05-16 06:09:00,
2013-05-16 02:14:00,51.7,48.6,29.80,West,281,0.0,0.0,89,0.00,,,0.00,Wunderground v.1.15,2013-05-16 06:14:00,
2013-05-16 02:19:00,51.5,48.4,29.81,West,281,0.0,0.0,89,0.00,,,0.00,Wunderground v.1.15,2013-05-16 06:19:00,
2013-05-16 02:24:00,51.5,48.4,29.80,West,281,0.0,0.0,89,0.00,,,0.00,Wunderground v.1.15,2013-05-16 06:24:00,
2013-05-16 02:29:00,51.4,48.3,29.81,West,281,0.0,0.0,89,0.00,,,0.00,Wunderground v.1.15,2013-05-16 06:29:00,
2013-05-16 02:34:00,51.4,48.3,29.81,West,281,0.0,0.0,89,0.00,,,0.00,Wunderground v.1.15,2013-05-16 06:34:00,
2013-05-16 02:39:00,51.2,48.1,29.81,West,281,0.0,0.0,89,0.00,,,0.00,Wunderground v.1.15,2013-05-16 06:39:00,
2013-05-16 02:44:00,51.0,48.2,29.82,West,281,0.0,0.0,90,0.00,,,0.00,Wunderground v.1.15,2013-05-16 06:44:00,
2013-05-16 02:49:00,51.1,48.6,29.82,West,281,0.0,0.0,91,0.00,,,0.00,Wunderground v.1.15,2013-05-16 06:49:00,
2013-05-16 02:54:00,51.3,48.8,29.82,SSW,192,4.0,4.0,91,0.00,,,0.00,Wunderground v.1.15,2013-05-16 06:54:00,
2013-05-16 02:59:00,51.3,48.8,29.82,South,188,3.0,4.0,91,0.00,,,0.00,Wunderground v.1.15,2013-05-16 06:59:00,
2013-05-16 03:04:00,51.2,48.4,29.82,South,188,2.0,4.0,90,0.00,,,0.00,Wunderground v.1.15,2013-05-16 07:04:00,
2013-05-16 03:09:00,51.2,48.4,29.82,South,188,3.0,4.0,90,0.00,,,0.00,Wunderground v.1.15,2013-05-16 07:09:00,
2013-05-16 03:14:00,51.0,48.2,29.83,South,180,4.0,4.0,90,0.00,,,0.00,Wunderground v.1.15,2013-05-16 07:14:00,
2013-05-16 03:19:00,51.0,48.2,29.83,South,186,5.0,6.0,90,0.00,,,0.00,Wunderground v.1.15,2013-05-16 07:19:00,
2013-05-16 03:24:00,51.2,48.7,29.83,South,186,5.0,7.0,91,0.00,,,0.00,Wunderground v.1.15,2013-05-16 07:24:00,
2013-05-16 03:29:00,51.3,48.8,29.84,South,186,3.0,7.0,91,0.00,,,0.00,Wunderground v.1.15,2013-05-16 07:29:00,
2013-05-16 03:34:00,51.3,48.8,29.84,South,188,6.0,6.0,91,0.00,,,0.00,Wunderground v.1.15,2013-05-16 07:34:00,
2013-05-16 03:39:00,51.4,48.9,29.84,South,185,6.0,8.0,91,0.00,,,0.00,Wunderground v.1.15,2013-05-16 07:39:00,
2013-05-16 03:44:00,51.6,49.1,29.84,South,181,5.0,7.0,91,0.00,,,0.00,Wunderground v.1.15,2013-05-16 07:44:00,
2013-05-16 03:49:00,51.7,49.2,29.84,South,182,5.0,7.0,91,0.00,,,0.00,Wunderground v.1.15,2013-05-16 07:49:00,
2013-05-16 03:55:00,51.9,49.4,29.84,South,181,4.0,5.0,91,0.00,,,0.00,Wunderground v.1.15,2013-05-16 07:55:00,
2013-05-16 04:00:00,52.0,49.5,29.84,South,181,2.0,5.0,91,0.00,,,0.00,Wunderground v.1.15,2013-05-16 08:00:00,
2013-05-16 04:05:00,52.0,49.5,29.84,South,181,2.0,4.0,91,0.00,,,0.00,Wunderground v.1.15,2013-05-16 08:05:00,
2013-05-16 04:10:00,52.1,49.6,29.85,South,181,3.0,4.0,91,0.00,,,0.00,Wunderground v.1.15,2013-05-16 08:10:00,
2013-05-16 04:15:00,52.2,49.7,29.85,South,181,3.0,5.0,91,0.00,,,0.00,Wunderground v.1.15,2013-05-16 08:15:00,
2013-05-16 04:20:00,52.3,49.8,29.85,South,183,4.0,5.0,91,0.00,,,0.00,Wunderground v.1.15,2013-05-16 08:20:00,
2013-05-16 04:25:00,52.3,49.8,29.85,South,180,4.0,5.0,91,0.00,,,0.00,Wunderground v.1.15,2013-05-16 08:25:00,
2013-05-16 04:30:00,52.4,49.8,29.85,South,180,3.0,5.0,91,0.00,,,0.00,Wunderground v.1.15,2013-05-16 08:30:00,
2013-05-16 04:35:00,52.5,49.9,29.85,South,180,3.0,4.0,91,0.00,,,0.00,Wunderground v.1.15,2013-05-16 08:35:00,
2013-05-16 04:40:00,52.6,50.0,29.85,South,181,3.0,4.0,91,0.00,,,0.00,Wunderground v.1.15,2013-05-16 08:40:00,
2013-05-16 04:45:00,52.5,49.9,29.85,South,181,1.0,3.0,91,0.00,,,0.00,Wunderground v.1.15,2013-05-16 08:45:00,
2013-05-16 04:50:00,52.4,49.8,29.85,South,181,1.0,3.0,91,0.00,,,0.00,Wunderground v.1.15,2013-05-16 08:50:00,
2013-05-16 04:55:00,52.3,49.5,29.85,South,181,0.0,2.0,90,0.00,,,0.00,Wunderground v.1.15,2013-05-16 08:55:00,
2013-05-16 05:00:00,52.2,49.4,29.85,South,181,0.0,2.0,90,0.00,,,0.00,Wunderground v.1.15,2013-05-16 09:00:00,
2013-05-16 05:05:00,52.3,49.8,29.84,South,181,0.0,0.0,91,0.00,,,0.00,Wunderground v.1.15,2013-05-16 09:05:00,
2013-05-16 05:10:00,52.3,49.8,29.84,South,181,0.0,0.0,91,0.00,,,0.00,Wunderground v.1.15,2013-05-16 09:10:00,
2013-05-16 05:15:00,52.2,49.7,29.84,South,181,0.0,0.0,91,0.00,,,0.00,Wunderground v.1.15,2013-05-16 09:15:00,
2013-05-16 05:20:00,52.0,49.5,29.85,NNW,333,4.0,4.0,91,0.00,,,0.00,Wunderground v.1.15,2013-05-16 09:20:00,
2013-05-16 05:25:00,51.8,49.3,29.85,NNW,338,0.0,3.0,91,0.00,,,0.00,Wunderground v.1.15,2013-05-16 09:25:00,
2013-05-16 05:30:00,51.7,49.2,29.85,North,355,2.0,3.0,91,0.00,,,0.00,Wunderground v.1.15,2013-05-16 09:30:00,
2013-05-16 05:35:00,51.7,49.2,29.85,North,355,0.0,2.0,91,0.00,,,0.00,Wunderground v.1.15,2013-05-16 09:35:00,
2013-05-16 05:40:00,51.6,49.4,29.85,North,355,0.0,2.0,92,0.00,,,0.00,Wunderground v.1.15,2013-05-16 09:40:00,
2013-05-16 05:45:00,51.5,49.3,29.85,North,355,0.0,0.0,92,0.00,,,0.00,Wunderground v.1.15,2013-05-16 09:45:00,
2013-05-16 05:50:00,51.5,49.3,29.85,North,355,0.0,0.0,92,0.00,,,0.00,Wunderground v.1.15,2013-05-16 09:50:00,
2013-05-16 05:55:00,51.4,48.9,29.85,North,355,0.0,0.0,91,0.00,,,0.00,Wunderground v.1.15,2013-05-16 09:55:00,
2013-05-16 06:00:00,51.3,49.1,29.85,North,355,0.0,0.0,92,0.00,,,0.00,Wunderground v.1.15,2013-05-16 10:00:00,
2013-05-16 06:05:00,51.2,49.0,29.86,North,355,0.0,0.0,92,0.00,,,0.00,Wunderground v.1.15,2013-05-16 10:05:00,
2013-05-16 06:10:00,51.0,48.8,29.85,North,355,0.0,0.0,92,0.00,,,0.00,Wunderground v.1.15,2013-05-16 10:10:00,
2013-05-16 06:15:00,50.8,48.6,29.86,North,355,0.0,0.0,92,0.00,,,0.00,Wunderground v.1.15,2013-05-16 10:15:00,
2013-05-16 06:20:00,50.7,48.5,29.86,North,355,0.0,0.0,92,0.00,,,0.00,Wunderground v.1.15,2013-05-16 10:20:00,
2013-05-16 06:25:00,50.5,48.3,29.86,North,355,0.0,0.0,92,0.00,,,0.00,Wunderground v.1.15,2013-05-16 10:25:00,
2013-05-16 06:30:00,50.4,48.2,29.86,North,355,0.0,0.0,92,0.00,,,0.00,Wunderground v.1.15,2013-05-16 10:30:00,
2013-05-16 06:35:00,50.2,48.0,29.87,North,355,0.0,0.0,92,0.00,,,0.00,Wunderground v.1.15,2013-05-16 10:35:00,
2013-05-16 06:40:00,50.2,48.3,29.87,North,355,0.0,0.0,93,0.00,,,0.00,Wunderground v.1.15,2013-05-16 10:40:00,
2013-05-16 06:45:00,50.2,48.3,29.87,North,355,0.0,0.0,93,0.00,,,0.00,Wunderground v.1.15,2013-05-16 10:45:00,
2013-05-16 06:50:00,50.1,48.2,29.87,North,355,0.0,0.0,93,0.00,,,0.00,Wunderground v.1.15,2013-05-16 10:50:00,
2013-05-16 06:55:00,50.0,48.1,29.87,North,355,0.0,0.0,93,0.00,,,0.00,Wunderground v.1.15,2013-05-16 10:55:00,
2013-05-16 07:00:00,49.9,48.0,29.87,North,355,0.0,0.0,93,0.00,,,0.00,Wunderground v.1.15,2013-05-16 11:00:00,
2013-05-16 07:05:00,49.9,48.0,29.88,North,355,0.0,0.0,93,0.00,,,0.00,Wunderground v.1.15,2013-05-16 11:05:00,
2013-05-16 07:11:00,49.7,47.8,29.88,North,355,0.0,0.0,93,0.00,,,0.00,Wunderground v.1.15,2013-05-16 11:11:00,
2013-05-16 07:16:00,49.9,48.0,29.88,North,355,0.0,0.0,93,0.00,,,0.00,Wunderground v.1.15,2013-05-16 11:16:00,
2013-05-16 07:21:00,50.1,48.2,29.88,North,355,0.0,0.0,93,0.00,,,0.00,Wunderground v.1.15,2013-05-16 11:21:00,
2013-05-16 07:26:00,50.4,48.5,29.89,North,355,0.0,0.0,93,0.00,,,0.00,Wunderground v.1.15,2013-05-16 11:26:00,
2013-05-16 07:31:00,50.8,49.1,29.88,North,355,0.0,0.0,94,0.00,,,0.00,Wunderground v.1.15,2013-05-16 11:31:00,
2013-05-16 07:36:00,51.2,49.5,29.88,North,355,0.0,0.0,94,0.00,,,0.00,Wunderground v.1.15,2013-05-16 11:36:00,
2013-05-16 07:41:00,51.9,49.9,29.88,North,355,0.0,0.0,93,0.00,,,0.00,Wunderground v.1.15,2013-05-16 11:41:00,
2013-05-16 07:46:00,52.7,50.7,29.89,North,355,0.0,0.0,93,0.00,,,0.00,Wunderground v.1.15,2013-05-16 11:46:00,
2013-05-16 07:51:00,53.3,51.0,29.89,North,355,0.0,0.0,92,0.00,,,0.00,Wunderground v.1.15,2013-05-16 11:51:00,
2013-05-16 07:56:00,53.9,51.6,29.89,North,355,0.0,0.0,92,0.00,,,0.00,Wunderground v.1.15,2013-05-16 11:56:00,
2013-05-16 08:01:00,54.7,52.1,29.89,North,355,0.0,0.0,91,0.00,,,0.00,Wunderground v.1.15,2013-05-16 12:01:00,
2013-05-16 08:06:00,55.7,52.8,29.89,North,355,0.0,0.0,90,0.00,,,0.00,Wunderground v.1.15,2013-05-16 12:06:00,
2013-05-16 08:11:00,56.7,53.5,29.89,North,355,0.0,0.0,89,0.00,,,0.00,Wunderground v.1.15,2013-05-16 12:11:00,
2013-05-16 08:16:00,57.8,53.3,29.89,North,355,0.0,0.0,85,0.00,,,0.00,Wunderground v.1.15,2013-05-16 12:16:00,
2013-05-16 08:21:00,58.8,53.3,29.90,North,355,0.0,0.0,82,0.00,,,0.00,Wunderground v.1.15,2013-05-16 12:21:00,
2013-05-16 08:26:00,59.6,52.7,29.90,North,355,0.0,0.0,78,0.00,,,0.00,Wunderground v.1.15,2013-05-16 12:26:00,
2013-05-16 08:31:00,60.7,53.4,29.90,North,355,0.0,0.0,77,0.00,,,0.00,Wunderground v.1.15,2013-05-16 12:31:00,
2013-05-16 08:36:00,61.3,53.7,29.90,North,355,1.0,2.0,76,0.00,,,0.00,Wunderground v.1.15,2013-05-16 12:36:00,
2013-05-16 08:41:00,61.5,53.1,29.90,North,355,0.0,1.0,74,0.00,,,0.00,Wunderground v.1.15,2013-05-16 12:41:00,
2013-05-16 08:46:00,62.1,53.0,29.90,North,355,0.0,1.0,72,0.00,,,0.00,Wunderground v.1.15,2013-05-16 12:46:00,
2013-05-16 08:51:00,63.1,52.8,29.90,North,355,0.0,0.0,69,0.00,,,0.00,Wunderground v.1.15,2013-05-16 12:51:00,
2013-05-16 08:56:00,64.1,51.2,29.90,North,355,2.0,2.0,63,0.00,,,0.00,Wunderground v.1.15,2013-05-16 12:56:00,
2013-05-16 09:01:00,64.5,50.3,29.90,North,355,0.0,2.0,60,0.00,,,0.00,Wunderground v.1.15,2013-05-16 13:01:00,
2013-05-16 09:06:00,64.8,51.0,29.90,North,355,0.0,2.0,61,0.00,,,0.00,Wunderground v.1.15,2013-05-16 13:06:00,
2013-05-16 09:11:00,65.4,50.2,29.91,North,355,2.0,2.0,58,0.00,,,0.00,Wunderground v.1.15,2013-05-16 13:11:00,
2013-05-16 09:17:00,65.7,49.1,29.91,North,355,2.0,3.0,55,0.00,,,0.00,Wunderground v.1.15,2013-05-16 13:17:00,